createdAt,value
2018-08-10T00:00:40.159Z,20.60
2018-08-10T00:03:10.297Z,20.63
2018-08-10T00:05:40.239Z,21.13
2018-08-10T00:08:09.090Z,19.67
2018-08-10T00:10:37.793Z,21.17
2018-08-10T00:13:06.614Z,20.63
2018-08-10T00:15:35.518Z,20.43
2018-08-10T00:18:04.413Z,21.23
2018-08-10T00:20:33.249Z,20.97
2018-08-10T00:23:01.940Z,21.57
2018-08-10T00:25:30.756Z,20.67
2018-08-10T00:27:59.506Z,21.03
2018-08-10T00:30:28.275Z,21.53
2018-08-10T00:32:57.111Z,22.50
2018-08-10T00:35:25.763Z,21.60
2018-08-10T00:37:54.808Z,22.13
2018-08-10T00:40:23.989Z,21.07
2018-08-10T00:42:52.878Z,21.13
2018-08-10T00:45:21.696Z,22.13
2018-08-10T00:47:50.453Z,21.60
2018-08-10T00:50:19.151Z,22.57
2018-08-10T00:52:48.421Z,21.83
2018-08-10T00:55:18.368Z,22.20
2018-08-10T00:57:47.744Z,21.67
2018-08-10T01:00:22.986Z,21.87
2018-08-10T01:02:52.491Z,23.20
2018-08-10T01:05:21.214Z,22.23
2018-08-10T01:07:50.053Z,22.90
2018-08-10T01:10:19.769Z,21.50
2018-08-10T01:12:48.786Z,23.00
2018-08-10T01:15:17.936Z,23.33
2018-08-10T01:17:47.126Z,23.47
2018-08-10T01:20:20.503Z,22.33
2018-08-10T01:22:54.923Z,24.07
2018-08-10T01:25:25.364Z,22.60
2018-08-10T01:27:59.666Z,22.57
2018-08-10T01:30:29.571Z,24.17
2018-08-10T01:32:58.885Z,24.03
2018-08-10T01:35:28.338Z,23.20
2018-08-10T01:37:58.241Z,24.17
2018-08-10T01:40:27.078Z,24.27
2018-08-10T01:42:55.738Z,24.83
2018-08-10T01:45:24.465Z,23.00
2018-08-10T01:47:53.343Z,25.53
2018-08-10T01:50:22.387Z,27.07
2018-08-10T01:52:51.026Z,26.60
2018-08-10T01:55:19.871Z,26.67
2018-08-10T01:57:48.540Z,25.97
2018-08-10T02:00:17.196Z,27.93
2018-08-10T02:02:45.878Z,27.30
2018-08-10T02:05:15.295Z,27.43
2018-08-10T02:07:44.594Z,27.70
2018-08-10T02:10:14.941Z,28.27
2018-08-10T02:12:44.443Z,29.60
2018-08-10T02:15:15.735Z,30.20
2018-08-10T02:17:44.506Z,31.57
2018-08-10T02:20:14.791Z,29.50
2018-08-10T02:22:43.756Z,27.77
2018-08-10T02:25:13.993Z,28.03
2018-08-10T02:27:43.738Z,27.23
2018-08-10T02:30:13.795Z,27.27
2018-08-10T02:32:43.166Z,26.77
2018-08-10T02:35:12.016Z,26.80
2018-08-10T02:37:41.290Z,24.63
2018-08-10T02:40:17.213Z,25.47
2018-08-10T02:42:47.009Z,25.77
2018-08-10T02:45:16.191Z,26.07
2018-08-10T02:47:45.551Z,23.90
2018-08-10T02:50:14.476Z,23.30
2018-08-10T02:52:43.318Z,24.63
2018-08-10T02:55:12.688Z,24.70
2018-08-10T02:57:41.665Z,24.57
2018-08-10T03:00:12.858Z,26.67
2018-08-10T03:02:42.121Z,25.20
2018-08-10T03:05:11.023Z,25.53
2018-08-10T03:07:40.243Z,24.73
2018-08-10T03:10:10.855Z,26.50
2018-08-10T03:12:39.607Z,28.33
2018-08-10T03:15:12.926Z,27.73
2018-08-10T03:17:41.950Z,29.07
2018-08-10T03:20:11.090Z,28.77
2018-08-10T03:22:40.149Z,31.57
2018-08-10T03:25:10.653Z,29.97
2018-08-10T03:27:39.445Z,29.00
2018-08-10T03:30:10.078Z,28.40
2018-08-10T03:32:39.035Z,26.13
2018-08-10T03:35:07.847Z,27.83
2018-08-10T03:37:37.103Z,27.10
2018-08-10T03:40:08.743Z,25.83
2018-08-10T03:42:37.395Z,25.87
2018-08-10T03:45:06.558Z,25.87
2018-08-10T03:47:35.678Z,26.13
2018-08-10T03:50:05.646Z,28.57
2018-08-10T03:52:34.358Z,27.33
2018-08-10T03:55:03.143Z,27.23
2018-08-10T03:57:31.755Z,26.90
2018-08-10T04:00:00.521Z,27.73
2018-08-10T04:02:29.225Z,25.97
2018-08-10T04:04:57.988Z,26.20
2018-08-10T04:07:26.758Z,26.20
2018-08-10T04:09:55.497Z,24.87
2018-08-10T04:12:24.160Z,27.47
2018-08-10T04:14:52.863Z,27.43
2018-08-10T04:17:25.524Z,29.03
2018-08-10T04:19:55.018Z,27.67
2018-08-10T04:22:24.960Z,27.37
2018-08-10T04:24:53.664Z,29.10
2018-08-10T04:27:22.482Z,27.90
2018-08-10T04:29:51.191Z,27.90
2018-08-10T04:32:20.131Z,27.80
2018-08-10T04:34:48.815Z,27.20
2018-08-10T04:37:17.947Z,26.63
2018-08-10T04:39:46.691Z,26.10
2018-08-10T04:42:15.365Z,26.83
2018-08-10T04:44:43.983Z,24.80
2018-08-10T04:47:12.715Z,24.30
2018-08-10T04:49:41.395Z,24.00
2018-08-10T04:52:10.016Z,23.60
2018-08-10T04:54:38.700Z,22.63
2018-08-10T04:57:07.482Z,22.23
2018-08-10T04:59:36.118Z,22.10
2018-08-10T05:02:05.904Z,20.53
2018-08-10T05:04:34.561Z,20.77
2018-08-10T05:07:03.413Z,19.60
2018-08-10T05:09:32.073Z,19.33
2018-08-10T05:12:00.658Z,19.60
2018-08-10T05:14:29.243Z,19.50
2018-08-10T05:16:57.938Z,19.50
2018-08-10T05:19:26.747Z,18.60
2018-08-10T05:21:55.418Z,19.63
2018-08-10T05:24:24.163Z,18.63
2018-08-10T05:26:52.923Z,18.97
2018-08-10T05:29:21.738Z,18.90
2018-08-10T05:31:50.397Z,19.00
2018-08-10T05:34:19.069Z,18.20
2018-08-10T05:36:47.812Z,18.03
2018-08-10T05:39:16.575Z,18.17
2018-08-10T05:41:45.198Z,17.80
2018-08-10T05:44:13.850Z,16.00
2018-08-10T05:46:42.497Z,16.03
2018-08-10T05:49:11.181Z,15.83
2018-08-10T05:51:39.799Z,16.00
2018-08-10T05:54:08.486Z,17.23
2018-08-10T05:56:38.308Z,16.67
2018-08-10T05:59:07.059Z,17.30
2018-08-10T06:01:35.765Z,18.42
2018-08-10T06:04:04.986Z,17.63
2018-08-10T06:06:33.494Z,17.97
2018-08-10T06:09:02.215Z,19.30
2018-08-10T06:11:30.929Z,18.37
2018-08-10T06:13:59.656Z,19.10
2018-08-10T06:16:28.398Z,19.00
2018-08-10T06:18:57.039Z,17.92
2018-08-10T06:21:25.635Z,19.35
2018-08-10T06:23:54.281Z,18.03
2018-08-10T06:26:23.140Z,16.37
2018-08-10T06:28:51.946Z,17.00
2018-08-10T06:31:20.791Z,17.35
2018-08-10T06:33:49.520Z,16.52
2018-08-10T06:36:18.253Z,16.97
2018-08-10T06:38:46.986Z,16.62
2018-08-10T06:41:15.645Z,16.55
2018-08-10T06:43:44.338Z,16.93
2018-08-10T06:46:12.991Z,17.20
2018-08-10T06:48:42.076Z,16.85
2018-08-10T06:51:10.751Z,16.17
2018-08-10T06:53:39.531Z,16.17
2018-08-10T06:56:09.032Z,16.37
2018-08-10T06:58:37.713Z,15.98
2018-08-10T07:01:06.544Z,16.23
2018-08-10T07:03:35.193Z,15.98
2018-08-10T07:06:03.876Z,15.35
2018-08-10T07:08:33.657Z,16.87
2018-08-10T07:11:02.493Z,16.25
2018-08-10T07:13:31.298Z,16.73
2018-08-10T07:16:00.001Z,16.90
2018-08-10T07:18:28.691Z,16.17
2018-08-10T07:20:57.323Z,15.55
2018-08-10T07:23:26.004Z,15.25
2018-08-10T07:25:54.708Z,15.78
2018-08-10T07:28:23.468Z,15.63
2018-08-10T07:30:52.337Z,15.95
2018-08-10T07:33:21.379Z,15.13
2018-08-10T07:35:50.225Z,14.55
2018-08-10T07:38:19.091Z,14.40
2018-08-10T07:40:47.932Z,13.58
2018-08-10T07:43:16.851Z,14.55
2018-08-10T07:45:45.601Z,13.68
2018-08-10T07:48:14.255Z,14.75
2018-08-10T07:50:43.156Z,14.05
2018-08-10T07:53:12.171Z,14.23
2018-08-10T07:55:40.964Z,14.23
2018-08-10T07:58:09.959Z,14.53
2018-08-10T08:00:38.790Z,13.15
2018-08-10T08:03:07.749Z,12.58
2018-08-10T08:05:36.525Z,13.58
2018-08-10T08:08:05.557Z,13.65
2018-08-10T08:10:34.451Z,13.03
2018-08-10T08:13:03.150Z,12.30
2018-08-10T08:15:31.986Z,11.83
2018-08-10T08:18:00.848Z,10.90
2018-08-10T08:20:29.544Z,11.00
2018-08-10T08:23:03.828Z,11.90
2018-08-10T08:25:34.019Z,12.00
2018-08-10T08:28:02.826Z,11.85
2018-08-10T08:30:31.556Z,11.78
2018-08-10T08:33:00.320Z,11.78
2018-08-10T08:35:29.016Z,11.60
2018-08-10T08:38:13.321Z,11.63
2018-08-10T08:40:42.229Z,10.72
2018-08-10T08:43:11.127Z,10.90
2018-08-10T08:46:00.943Z,10.28
2018-08-10T08:48:30.985Z,11.10
2018-08-10T08:51:02.536Z,10.90
2018-08-10T08:53:31.506Z,10.60
2018-08-10T08:56:02.873Z,10.28
2018-08-10T08:58:32.233Z,10.60
2018-08-10T09:01:01.302Z,10.18
2018-08-10T09:03:46.909Z,10.68
2018-08-10T09:06:17.820Z,10.10
2018-08-10T09:09:34.341Z,10.78
2018-08-10T09:12:03.107Z,10.23
2018-08-10T09:14:43.913Z,10.48
2018-08-10T09:17:13.198Z,9.93
2018-08-10T09:19:42.391Z,9.95
2018-08-10T09:22:11.719Z,10.03
2018-08-10T09:24:41.199Z,10.15
2018-08-10T09:27:10.345Z,10.05
2018-08-10T09:29:39.207Z,10.00
2018-08-10T09:32:08.057Z,10.18
2018-08-10T09:34:36.821Z,9.78
2018-08-10T09:37:06.484Z,9.70
2018-08-10T09:39:35.434Z,10.05
2018-08-10T09:42:06.438Z,9.70
2018-08-10T09:44:35.600Z,10.03
2018-08-10T09:47:05.201Z,9.93
2018-08-10T09:49:52.044Z,9.40
2018-08-10T09:52:21.102Z,10.38
2018-08-10T09:55:40.393Z,10.60
2018-08-10T09:58:18.196Z,10.03
2018-08-10T10:00:53.366Z,9.90
2018-08-10T10:03:24.456Z,9.93
2018-08-10T10:05:55.990Z,10.10
2018-08-10T10:08:25.312Z,9.30
2018-08-10T10:10:54.286Z,10.43
2018-08-10T10:13:23.038Z,10.10
2018-08-10T10:15:51.780Z,10.25
2018-08-10T10:18:20.476Z,9.70
2018-08-10T10:20:49.283Z,9.88
2018-08-10T10:23:17.974Z,10.25
2018-08-10T10:25:46.736Z,9.55
2018-08-10T10:28:16.021Z,9.15
2018-08-10T10:30:44.779Z,10.05
2018-08-10T10:33:13.555Z,10.53
2018-08-10T10:35:42.745Z,9.93
2018-08-10T10:38:12.293Z,9.98
2018-08-10T10:40:41.031Z,9.33
2018-08-10T10:43:09.709Z,9.68
2018-08-10T10:45:38.378Z,9.75
2018-08-10T10:48:07.443Z,10.00
2018-08-10T10:50:36.143Z,10.55
2018-08-10T10:53:04.931Z,9.95
2018-08-10T10:55:33.675Z,10.15
2018-08-10T10:58:02.885Z,10.63
2018-08-10T11:00:31.669Z,10.03
2018-08-10T11:03:00.372Z,9.80
2018-08-10T11:05:29.796Z,9.93
2018-08-10T11:07:58.461Z,9.60
2018-08-10T11:10:27.213Z,9.58
2018-08-10T11:12:55.918Z,8.98
2018-08-10T11:15:24.710Z,9.03
2018-08-10T11:17:53.457Z,9.10
2018-08-10T11:20:22.290Z,8.50
2018-08-10T11:22:52.383Z,8.10
2018-08-10T11:25:22.537Z,8.98
2018-08-10T11:27:51.512Z,8.45
2018-08-10T11:30:20.334Z,7.80
2018-08-10T11:32:49.503Z,8.73
2018-08-10T11:35:18.231Z,7.58
2018-08-10T11:37:46.980Z,8.35
2018-08-10T11:40:15.796Z,7.90
2018-08-10T11:42:44.633Z,7.87
2018-08-10T11:45:16.143Z,8.30
2018-08-10T11:47:45.099Z,8.15
2018-08-10T11:50:13.994Z,8.03
2018-08-10T11:52:42.746Z,8.05
2018-08-10T11:55:14.275Z,8.00
2018-08-10T11:57:44.230Z,7.85
2018-08-10T12:00:14.408Z,8.40
2018-08-10T12:02:43.520Z,8.58
2018-08-10T12:05:13.073Z,8.70
2018-08-10T12:07:41.968Z,8.45
2018-08-10T12:10:10.845Z,8.70
2018-08-10T12:12:39.695Z,8.30
2018-08-10T12:15:11.099Z,8.65
2018-08-10T12:17:40.073Z,8.50
2018-08-10T12:20:09.463Z,8.73
2018-08-10T12:22:40.218Z,8.70
2018-08-10T12:25:09.757Z,8.90
2018-08-10T12:27:39.111Z,9.13
2018-08-10T12:30:10.436Z,8.90
2018-08-10T12:32:41.175Z,9.63
2018-08-10T12:35:10.471Z,9.58
2018-08-10T12:37:39.700Z,9.80
2018-08-10T12:40:08.963Z,9.60
2018-08-10T12:42:39.525Z,10.30
2018-08-10T12:45:08.845Z,11.10
2018-08-10T12:47:37.973Z,10.60
2018-08-10T12:50:07.200Z,10.68
2018-08-10T12:52:36.045Z,10.72
2018-08-10T12:55:06.596Z,11.53
2018-08-10T12:57:35.423Z,11.80
2018-08-10T13:00:06.967Z,12.80
2018-08-10T13:02:35.774Z,12.50
2018-08-10T13:05:05.478Z,12.13
2018-08-10T13:07:34.430Z,11.97
2018-08-10T13:10:03.668Z,13.45
2018-08-10T13:12:32.431Z,11.73
2018-08-10T13:15:01.128Z,12.25
2018-08-10T13:17:29.979Z,12.13
2018-08-10T13:19:58.761Z,12.05
2018-08-10T13:22:28.212Z,11.45
2018-08-10T13:24:57.050Z,11.65
2018-08-10T13:27:25.769Z,11.10
2018-08-10T13:29:54.650Z,11.22
2018-08-10T13:32:24.191Z,11.35
2018-08-10T13:34:52.912Z,11.28
2018-08-10T13:37:21.620Z,11.03
2018-08-10T13:39:50.606Z,11.10
2018-08-10T13:42:19.383Z,10.90
2018-08-10T13:44:48.154Z,10.00
2018-08-10T13:47:16.918Z,9.88
2018-08-10T13:49:45.914Z,10.70
2018-08-10T13:52:14.728Z,9.95
2018-08-10T13:54:44.364Z,9.75
2018-08-10T13:57:13.176Z,10.05
2018-08-10T13:59:42.162Z,9.83
2018-08-10T14:02:11.155Z,10.03
2018-08-10T14:04:39.853Z,10.13
2018-08-10T14:07:08.642Z,10.25
2018-08-10T14:09:37.384Z,10.30
2018-08-10T14:12:06.125Z,10.25
2018-08-10T14:14:35.883Z,10.40
2018-08-10T14:17:04.719Z,10.35
2018-08-10T14:19:33.381Z,9.30
2018-08-10T14:22:02.099Z,12.95
2018-08-10T14:24:31.016Z,12.43
2018-08-10T14:26:59.811Z,11.08
2018-08-10T14:29:29.448Z,11.20
2018-08-10T14:31:58.209Z,11.10
2018-08-10T14:34:26.986Z,11.75
2018-08-10T14:36:55.713Z,11.28
2018-08-10T14:39:24.591Z,11.10
2018-08-10T14:41:53.434Z,11.63
2018-08-10T14:44:22.213Z,11.03
2018-08-10T14:46:51.030Z,10.53
2018-08-10T14:49:21.421Z,10.75
2018-08-10T14:51:50.236Z,9.35
2018-08-10T14:54:18.945Z,10.00
2018-08-10T14:56:47.839Z,9.50
2018-08-10T14:59:16.671Z,10.23
2018-08-10T15:01:45.519Z,9.75
2018-08-10T15:04:14.377Z,10.10
2018-08-10T15:06:43.246Z,10.13
2018-08-10T15:09:13.306Z,10.78
2018-08-10T15:11:42.983Z,10.03
2018-08-10T15:14:11.818Z,9.90
2018-08-10T15:16:41.241Z,10.53
2018-08-10T15:19:10.415Z,10.53
2018-08-10T15:21:39.181Z,9.95
2018-08-10T15:24:07.913Z,10.32
2018-08-10T15:26:36.749Z,9.98
2018-08-10T15:29:05.932Z,9.65
2018-08-10T15:31:34.764Z,9.38
2018-08-10T15:34:03.623Z,8.58
2018-08-10T15:36:32.393Z,8.83
2018-08-10T15:39:01.151Z,8.53
2018-08-10T15:41:30.026Z,8.63
2018-08-10T15:43:58.905Z,9.00
2018-08-10T15:46:27.651Z,9.78
2018-08-10T15:48:56.465Z,9.68
2018-08-10T15:51:25.145Z,9.50
2018-08-10T15:53:53.818Z,9.63
2018-08-10T15:56:22.593Z,10.60
2018-08-10T15:58:51.227Z,13.95
2018-08-10T16:01:19.957Z,14.10
2018-08-10T16:03:48.714Z,9.83
2018-08-10T16:06:17.560Z,10.00
2018-08-10T16:08:46.333Z,9.73
2018-08-10T16:11:15.133Z,9.90
2018-08-10T16:13:44.077Z,9.18
2018-08-10T16:16:12.924Z,9.55
2018-08-10T16:18:42.841Z,8.35
2018-08-10T16:21:11.641Z,9.20
2018-08-10T16:23:40.826Z,9.40
2018-08-10T16:26:09.586Z,9.13
2018-08-10T16:28:38.364Z,8.83
2018-08-10T16:31:07.714Z,8.78
2018-08-10T16:33:36.474Z,7.58
2018-08-10T16:36:05.290Z,7.58
2018-08-10T16:38:34.209Z,7.72
2018-08-10T16:41:03.090Z,7.10
2018-08-10T16:43:31.854Z,7.60
2018-08-10T16:46:00.674Z,6.92
2018-08-10T16:48:29.641Z,7.15
2018-08-10T16:50:58.544Z,7.25
2018-08-10T16:53:28.341Z,7.00
2018-08-10T16:55:57.127Z,7.22
2018-08-10T16:58:26.235Z,7.08
2018-08-10T17:00:55.057Z,9.25
2018-08-10T17:03:23.850Z,9.40
2018-08-10T17:05:52.660Z,9.65
2018-08-10T17:08:21.414Z,9.65
2018-08-10T17:10:50.879Z,7.60
2018-08-10T17:13:19.771Z,8.23
2018-08-10T17:15:48.638Z,7.20
2018-08-10T17:18:17.664Z,7.05
2018-08-10T17:20:46.576Z,6.60
2018-08-10T17:23:15.906Z,6.12
2018-08-10T17:25:46.058Z,6.40
2018-08-10T17:28:14.904Z,6.25
2018-08-10T17:30:43.731Z,8.28
2018-08-10T17:33:12.476Z,6.85
2018-08-10T17:35:43.111Z,6.60
2018-08-10T17:38:11.820Z,5.92
2018-08-10T17:40:40.507Z,6.28
2018-08-10T17:43:09.279Z,5.70
2018-08-10T17:45:38.025Z,5.70
2018-08-10T17:48:06.870Z,5.67
2018-08-10T17:51:11.598Z,5.78
2018-08-10T17:53:40.295Z,5.45
2018-08-10T17:56:09.216Z,5.97
2018-08-10T17:58:38.153Z,5.78
2018-08-10T18:01:06.878Z,5.50
2018-08-10T18:03:36.061Z,5.40
2018-08-10T18:06:04.881Z,5.40
2018-08-10T18:08:33.646Z,5.70
2018-08-10T18:11:02.578Z,5.75
2018-08-10T18:13:31.341Z,5.92
2018-08-10T18:16:00.138Z,5.72
2018-08-10T18:18:28.858Z,5.92
2018-08-10T18:20:57.597Z,5.90
2018-08-10T18:23:26.284Z,5.30
2018-08-10T18:25:55.079Z,5.15
2018-08-10T18:28:23.839Z,5.25
2018-08-10T18:30:52.533Z,6.08
2018-08-10T18:33:21.519Z,5.97
2018-08-10T18:35:50.279Z,5.78
2018-08-10T18:38:18.986Z,5.30
2018-08-10T18:40:47.623Z,5.72
2018-08-10T18:43:16.354Z,5.62
2018-08-10T18:45:45.031Z,5.95
2018-08-10T18:48:13.741Z,6.08
2018-08-10T18:50:42.578Z,5.85
2018-08-10T18:53:11.339Z,5.72
2018-08-10T18:55:40.571Z,5.75
2018-08-10T18:58:09.274Z,6.22
2018-08-10T19:00:38.082Z,5.80
2018-08-10T19:03:06.935Z,5.65
2018-08-10T19:05:35.678Z,6.15
2018-08-10T19:08:04.524Z,5.70
2018-08-10T19:10:33.379Z,6.10
2018-08-10T19:13:03.197Z,6.03
2018-08-10T19:15:31.917Z,6.00
2018-08-10T19:18:00.611Z,6.37
2018-08-10T19:20:29.363Z,5.65
2018-08-10T19:22:58.426Z,5.90
2018-08-10T19:25:27.198Z,6.03
2018-08-10T19:27:56.083Z,5.90
2018-08-10T19:30:25.153Z,6.15
2018-08-10T19:32:54.118Z,6.72
2018-08-10T19:35:22.882Z,5.95
2018-08-10T19:37:52.968Z,6.50
2018-08-10T19:40:21.867Z,5.70
2018-08-10T19:42:50.672Z,6.47
2018-08-10T19:45:19.556Z,6.27
2018-08-10T19:47:48.468Z,6.10
2018-08-10T19:50:21.671Z,6.43
2018-08-10T19:52:50.732Z,5.90
2018-08-10T19:55:20.106Z,6.17
2018-08-10T19:57:49.500Z,6.37
2018-08-10T20:00:19.451Z,6.03
2018-08-10T20:02:50.147Z,6.65
2018-08-10T20:05:18.923Z,6.40
2018-08-10T20:07:47.973Z,6.22
2018-08-10T20:10:16.967Z,6.70
2018-08-10T20:12:46.953Z,6.57
2018-08-10T20:15:17.968Z,6.55
2018-08-10T20:17:46.754Z,6.33
2018-08-10T20:20:17.468Z,6.20
2018-08-10T20:22:47.261Z,6.35
2018-08-10T20:25:17.143Z,6.27
2018-08-10T20:27:46.068Z,5.92
2018-08-10T20:30:17.300Z,6.12
2018-08-10T20:32:46.928Z,6.25
2018-08-10T20:35:18.389Z,6.53
2018-08-10T20:37:47.534Z,6.85
2018-08-10T20:40:18.512Z,6.20
2018-08-10T20:42:48.367Z,7.27
2018-08-10T20:45:18.412Z,7.13
2018-08-10T20:47:47.940Z,6.47
2018-08-10T20:50:22.144Z,6.83
2018-08-10T20:52:51.029Z,6.43
2018-08-10T20:55:20.004Z,6.67
2018-08-10T20:57:49.529Z,7.17
2018-08-10T21:00:18.449Z,7.43
2018-08-10T21:02:47.345Z,7.73
2018-08-10T21:05:16.145Z,6.60
2018-08-10T21:07:45.326Z,6.33
2018-08-10T21:10:16.120Z,6.40
2018-08-10T21:12:45.896Z,6.70
2018-08-10T21:15:15.578Z,7.17
2018-08-10T21:17:45.256Z,6.93
2018-08-10T21:20:17.132Z,6.20
2018-08-10T21:22:46.570Z,6.57
2018-08-10T21:25:19.602Z,7.10
2018-08-10T21:27:48.716Z,6.90
2018-08-10T21:30:19.473Z,6.83
2018-08-10T21:32:48.946Z,6.60
2018-08-10T21:35:18.674Z,7.20
2018-08-10T21:37:48.174Z,7.07
2018-08-10T21:40:17.951Z,6.93
2018-08-10T21:42:47.343Z,6.90
2018-08-10T21:45:16.111Z,7.40
2018-08-10T21:47:44.868Z,7.10
2018-08-10T21:50:14.492Z,6.93
2018-08-10T21:52:44.064Z,7.67
2018-08-10T21:55:13.017Z,7.60
2018-08-10T21:57:41.878Z,7.97
2018-08-10T22:00:24.333Z,7.17
2018-08-10T22:02:53.125Z,7.30
2018-08-10T22:05:21.840Z,8.00
2018-08-10T22:07:50.631Z,8.13
2018-08-10T22:10:20.446Z,7.73
2018-08-10T22:12:49.852Z,7.70
2018-08-10T22:15:24.370Z,7.97
2018-08-10T22:17:59.554Z,7.30
2018-08-10T22:20:28.344Z,7.77
2018-08-10T22:22:57.131Z,7.33
2018-08-10T22:25:26.804Z,7.27
2018-08-10T22:27:55.671Z,7.23
2018-08-10T22:30:24.431Z,7.33
2018-08-10T22:32:53.171Z,7.13
2018-08-10T22:35:21.854Z,7.40
2018-08-10T22:37:50.731Z,7.43
2018-08-10T22:40:19.620Z,7.77
2018-08-10T22:42:48.418Z,7.07
2018-08-10T22:45:17.264Z,7.13
2018-08-10T22:47:45.915Z,8.53
2018-08-10T22:50:14.724Z,8.20
2018-08-10T22:52:44.001Z,8.23
2018-08-10T22:55:12.745Z,8.27
2018-08-10T22:57:41.448Z,8.00
2018-08-10T23:00:10.200Z,8.37
2018-08-10T23:02:38.921Z,7.93
2018-08-10T23:05:07.992Z,7.77
2018-08-10T23:07:36.923Z,8.37
2018-08-10T23:10:08.251Z,7.90
2018-08-10T23:12:37.019Z,7.00
2018-08-10T23:15:06.880Z,6.40
2018-08-10T23:17:35.788Z,6.70
2018-08-10T23:20:06.936Z,6.50
2018-08-10T23:22:35.675Z,6.20
2018-08-10T23:25:06.631Z,6.43
2018-08-10T23:27:35.355Z,6.43
2018-08-10T23:30:06.236Z,7.73
2018-08-10T23:32:35.025Z,7.80
2018-08-10T23:35:03.998Z,7.97
2018-08-10T23:37:32.810Z,8.23
2018-08-10T23:40:01.451Z,8.70
2018-08-10T23:42:30.143Z,8.43
2018-08-10T23:44:59.012Z,9.10
2018-08-10T23:47:27.665Z,8.77
2018-08-10T23:49:56.358Z,9.43
2018-08-10T23:52:25.063Z,9.13
2018-08-10T23:54:53.707Z,9.23
2018-08-10T23:57:22.419Z,8.90
2018-08-10T23:59:51.105Z,9.17
